createdAt,value
2019-05-03T00:01:21.811Z,7.32
2019-05-03T00:04:27.016Z,7.34
2019-05-03T00:07:32.351Z,7.34
2019-05-03T00:10:39.390Z,7.37
2019-05-03T00:13:46.209Z,7.43
2019-05-03T00:16:52.291Z,7.35
2019-05-03T00:19:58.518Z,7.34
2019-05-03T00:23:03.666Z,7.33
2019-05-03T00:26:08.799Z,7.31
2019-05-03T00:29:13.971Z,7.31
2019-05-03T00:32:19.141Z,7.31
2019-05-03T00:35:42.433Z,7.27
2019-05-03T00:38:49.680Z,7.22
2019-05-03T00:41:54.858Z,7.22
2019-05-03T00:45:02.120Z,7.16
2019-05-03T00:48:07.084Z,7.15
2019-05-03T00:51:12.217Z,7.11
2019-05-03T00:54:17.371Z,7.07
2019-05-03T00:57:22.790Z,7.04
2019-05-03T01:00:28.046Z,7.13
2019-05-03T01:03:33.189Z,7.07
2019-05-03T01:06:39.314Z,7.00
2019-05-03T01:09:44.429Z,6.94
2019-05-03T01:12:49.658Z,6.90
2019-05-03T01:16:11.827Z,6.87
2019-05-03T01:19:17.034Z,6.85
2019-05-03T01:22:22.580Z,6.78
2019-05-03T01:25:32.242Z,6.76
2019-05-03T01:28:34.836Z,6.82
2019-05-03T01:31:42.068Z,6.83
2019-05-03T01:34:52.151Z,6.71
2019-05-03T01:37:58.120Z,6.72
2019-05-03T01:41:03.285Z,6.68
2019-05-03T01:44:08.431Z,6.63
2019-05-03T01:47:21.846Z,6.54
2019-05-03T01:50:32.767Z,6.53
2019-05-03T01:53:38.598Z,6.53
2019-05-03T01:56:55.943Z,6.49
2019-05-03T01:59:52.060Z,6.44
2019-05-03T02:03:08.959Z,6.50
2019-05-03T02:06:14.099Z,6.45
2019-05-03T02:09:19.279Z,6.42
2019-05-03T02:12:26.554Z,6.43
2019-05-03T02:15:32.690Z,6.41
2019-05-03T02:18:39.054Z,6.41
2019-05-03T02:21:44.253Z,6.39
2019-05-03T02:24:49.414Z,6.39
2019-05-03T02:27:54.569Z,6.34
2019-05-03T02:30:59.759Z,6.31
2019-05-03T02:34:05.008Z,6.28
2019-05-03T02:37:13.571Z,6.34
2019-05-03T02:40:20.397Z,6.27
2019-05-03T02:43:37.458Z,6.23
2019-05-03T02:47:05.628Z,6.16
2019-05-03T02:50:16.647Z,6.14
2019-05-03T02:53:20.989Z,6.20
2019-05-03T02:56:26.408Z,6.13
2019-05-03T02:59:31.714Z,6.12
2019-05-03T03:02:37.141Z,6.05
2019-05-03T03:05:43.188Z,6.01
2019-05-03T03:08:50.110Z,6.07
2019-05-03T03:11:58.647Z,6.02
2019-05-03T03:15:06.195Z,5.93
2019-05-03T03:18:10.983Z,5.90
2019-05-03T03:21:17.989Z,5.84
2019-05-03T03:24:26.038Z,5.76
2019-05-03T03:27:36.073Z,5.71
2019-05-03T03:31:07.973Z,5.59
2019-05-03T03:34:12.525Z,5.42
2019-05-03T03:37:18.666Z,5.33
2019-05-03T03:40:25.540Z,5.26
2019-05-03T03:43:35.318Z,5.17
2019-05-03T03:46:41.682Z,5.06
2019-05-03T03:49:48.310Z,5.04
2019-05-03T03:52:57.521Z,4.95
2019-05-03T03:56:05.653Z,4.87
2019-05-03T03:59:11.073Z,4.92
2019-05-03T04:02:16.409Z,4.96
2019-05-03T04:05:21.713Z,5.05
2019-05-03T04:08:27.158Z,5.24
2019-05-03T04:11:32.285Z,5.53
2019-05-03T04:14:56.326Z,5.80
2019-05-03T04:18:20.611Z,6.40
2019-05-03T04:21:25.916Z,7.25
2019-05-03T04:24:31.470Z,7.90
2019-05-03T04:27:36.671Z,8.07
2019-05-03T04:30:42.023Z,8.89
2019-05-03T04:33:47.281Z,9.00
2019-05-03T04:36:52.434Z,8.53
2019-05-03T04:39:58.948Z,7.75
2019-05-03T04:43:06.091Z,7.35
2019-05-03T04:46:20.933Z,7.10
2019-05-03T04:49:27.343Z,6.84
2019-05-03T04:53:01.815Z,6.45
2019-05-03T04:56:12.724Z,6.39
2019-05-03T04:59:18.220Z,7.72
2019-05-03T05:02:26.233Z,9.60
2019-05-03T05:05:36.384Z,10.66
2019-05-03T05:08:41.128Z,12.03
2019-05-03T05:11:46.399Z,11.85
2019-05-03T05:14:51.733Z,12.25
2019-05-03T05:18:06.098Z,12.95
2019-05-03T05:21:30.627Z,13.73
2019-05-03T05:24:35.762Z,12.64
2019-05-03T05:28:04.614Z,13.18
2019-05-03T05:31:11.072Z,14.13
2019-05-03T05:34:16.371Z,12.26
2019-05-03T05:37:21.615Z,13.05
2019-05-03T05:40:26.758Z,13.83
2019-05-03T05:43:31.937Z,14.93
2019-05-03T05:46:45.410Z,14.94
2019-05-03T05:50:10.743Z,14.74
2019-05-03T05:53:15.877Z,14.99
2019-05-03T05:56:52.263Z,14.22
2019-05-03T06:00:00.645Z,14.73
2019-05-03T06:03:05.923Z,14.77
2019-05-03T06:06:15.327Z,15.44
2019-05-03T06:09:39.494Z,14.10
2019-05-03T06:12:49.527Z,15.30
2019-05-03T06:16:15.491Z,14.91
2019-05-03T06:19:55.058Z,14.67
2019-05-03T06:23:14.426Z,14.28
2019-05-03T06:26:38.303Z,15.43
2019-05-03T06:29:45.401Z,15.67
2019-05-03T06:32:50.602Z,16.03
2019-05-03T06:35:55.731Z,14.58
2019-05-03T06:39:06.689Z,15.18
2019-05-03T06:42:17.482Z,13.02
2019-05-03T06:45:17.603Z,12.94
2019-05-03T06:48:28.165Z,12.73
2019-05-03T06:51:30.842Z,12.82
2019-05-03T06:54:37.886Z,12.28
2019-05-03T06:57:49.199Z,12.76
2019-05-03T07:01:16.581Z,11.29
2019-05-03T07:04:26.074Z,10.59
2019-05-03T07:07:39.226Z,11.19
2019-05-03T07:10:47.803Z,11.39
2019-05-03T07:13:54.888Z,11.41
2019-05-03T07:16:59.857Z,11.28
2019-05-03T07:20:05.431Z,10.80
2019-05-03T07:23:11.058Z,11.47
2019-05-03T07:26:16.210Z,10.85
2019-05-03T07:29:21.372Z,11.27
2019-05-03T07:32:26.652Z,11.39
2019-05-03T07:35:31.938Z,11.37
2019-05-03T07:38:38.756Z,11.66
2019-05-03T07:41:44.651Z,11.57
2019-05-03T07:44:50.897Z,11.99
2019-05-03T07:47:56.132Z,11.56
2019-05-03T07:51:02.483Z,10.85
2019-05-03T07:54:07.736Z,10.50
2019-05-03T07:57:30.834Z,9.85
2019-05-03T08:00:36.131Z,9.78
2019-05-03T08:03:41.251Z,11.44
2019-05-03T08:06:46.653Z,11.97
2019-05-03T08:09:51.811Z,11.98
2019-05-03T08:12:56.947Z,12.07
2019-05-03T08:16:02.179Z,11.96
2019-05-03T08:19:07.393Z,12.10
2019-05-03T08:22:12.559Z,11.20
2019-05-03T08:25:17.726Z,10.72
2019-05-03T08:28:24.585Z,10.37
2019-05-03T08:31:49.895Z,10.09
2019-05-03T08:35:12.793Z,10.11
2019-05-03T08:38:17.902Z,11.05
2019-05-03T08:41:24.760Z,11.49
2019-05-03T08:44:30.460Z,11.13
2019-05-03T08:47:35.602Z,10.92
2019-05-03T08:50:40.770Z,10.36
2019-05-03T08:53:47.543Z,10.37
2019-05-03T08:56:55.853Z,11.04
2019-05-03T09:00:01.414Z,11.42
2019-05-03T09:03:08.511Z,11.76
2019-05-03T09:06:15.405Z,11.29
2019-05-03T09:09:36.115Z,10.98
2019-05-03T09:12:58.802Z,10.67
2019-05-03T09:16:05.522Z,9.91
2019-05-03T09:19:10.738Z,9.80
2019-05-03T09:22:16.018Z,10.13
2019-05-03T09:25:21.555Z,9.89
2019-05-03T09:28:29.178Z,9.85
2019-05-03T09:31:35.266Z,9.99
2019-05-03T09:34:41.601Z,10.50
2019-05-03T09:37:46.745Z,10.31
2019-05-03T09:40:52.050Z,10.59
2019-05-03T09:43:58.527Z,10.86
2019-05-03T09:47:05.533Z,10.94
2019-05-03T09:50:11.723Z,11.58
2019-05-03T09:53:18.544Z,11.29
2019-05-03T09:56:47.918Z,10.94
2019-05-03T09:59:57.163Z,11.18
2019-05-03T10:02:55.129Z,10.89
2019-05-03T10:06:00.358Z,10.39
2019-05-03T10:09:06.167Z,11.08
2019-05-03T10:12:16.913Z,11.59
2019-05-03T10:15:40.618Z,11.64
2019-05-03T10:18:46.176Z,12.34
2019-05-03T10:21:51.612Z,12.65
2019-05-03T10:24:56.940Z,12.43
2019-05-03T10:28:02.114Z,11.88
2019-05-03T10:31:07.919Z,11.08
2019-05-03T10:34:15.525Z,11.00
2019-05-03T10:37:31.627Z,10.93
2019-05-03T10:40:37.197Z,11.16
2019-05-03T10:43:44.908Z,11.46
2019-05-03T10:46:50.153Z,11.88
2019-05-03T10:49:55.641Z,12.45
2019-05-03T10:53:11.431Z,12.70
2019-05-03T10:56:22.814Z,12.03
2019-05-03T10:59:24.973Z,12.26
2019-05-03T11:02:55.059Z,11.89
2019-05-03T11:06:00.541Z,12.08
2019-05-03T11:09:06.908Z,12.62
2019-05-03T11:12:12.384Z,12.69
2019-05-03T11:15:18.037Z,13.25
2019-05-03T11:18:25.280Z,12.80
2019-05-03T11:21:31.106Z,12.62
2019-05-03T11:24:36.840Z,11.66
2019-05-03T11:27:49.770Z,11.62
2019-05-03T11:31:01.803Z,12.42
2019-05-03T11:34:04.067Z,12.92
2019-05-03T11:37:26.867Z,12.92
2019-05-03T11:40:34.473Z,12.43
2019-05-03T11:43:44.256Z,11.69
2019-05-03T11:46:49.406Z,11.38
2019-05-03T11:49:54.765Z,10.64
2019-05-03T11:53:00.075Z,11.59
2019-05-03T11:56:05.627Z,12.49
2019-05-03T11:59:10.954Z,12.82
2019-05-03T12:02:38.052Z,12.75
2019-05-03T12:05:46.077Z,12.74
2019-05-03T12:08:51.342Z,12.19
2019-05-03T12:11:58.106Z,12.35
2019-05-03T12:15:04.864Z,11.90
2019-05-03T12:18:10.876Z,11.75
2019-05-03T12:21:17.961Z,11.13
2019-05-03T12:24:25.660Z,11.23
2019-05-03T12:27:31.486Z,11.33
2019-05-03T12:30:38.155Z,11.81
2019-05-03T12:33:45.767Z,12.32
2019-05-03T12:36:51.502Z,12.45
2019-05-03T12:39:56.867Z,12.22
2019-05-03T12:43:05.736Z,11.82
2019-05-03T12:46:10.109Z,12.18
2019-05-03T12:49:15.557Z,12.62
2019-05-03T12:52:21.616Z,12.26
2019-05-03T12:55:27.399Z,12.17
2019-05-03T12:58:50.318Z,12.45
2019-05-03T13:02:06.781Z,12.63
2019-05-03T13:05:11.936Z,12.84
2019-05-03T13:08:36.231Z,12.11
2019-05-03T13:11:52.968Z,12.13
2019-05-03T13:14:52.805Z,12.11
2019-05-03T13:17:58.113Z,11.96
2019-05-03T13:21:05.704Z,12.07
2019-05-03T13:24:22.573Z,12.21
2019-05-03T13:27:17.117Z,12.14
2019-05-03T13:30:22.497Z,12.41
2019-05-03T13:33:27.634Z,12.22
2019-05-03T13:36:34.910Z,12.40
2019-05-03T13:39:40.260Z,12.50
2019-05-03T13:42:56.129Z,12.32
2019-05-03T13:45:52.385Z,12.12
2019-05-03T13:48:57.568Z,12.25
2019-05-03T13:52:05.319Z,11.91
2019-05-03T13:55:10.814Z,12.22
2019-05-03T13:58:21.425Z,12.52
2019-05-03T14:01:45.105Z,12.78
2019-05-03T14:04:55.616Z,12.95
2019-05-03T14:08:00.965Z,13.31
2019-05-03T14:11:07.714Z,13.14
2019-05-03T14:14:15.068Z,13.30
2019-05-03T14:17:19.997Z,13.48
2019-05-03T14:20:44.132Z,13.84
2019-05-03T14:24:09.471Z,13.90
2019-05-03T14:27:17.086Z,13.71
2019-05-03T14:30:25.361Z,13.06
2019-05-03T14:33:30.627Z,13.32
2019-05-03T14:36:36.108Z,12.84
2019-05-03T14:39:42.315Z,12.43
2019-05-03T14:42:47.519Z,12.40
2019-05-03T14:45:54.824Z,12.59
2019-05-03T14:48:59.804Z,12.75
2019-05-03T14:52:05.531Z,12.75
2019-05-03T14:55:17.172Z,12.13
2019-05-03T14:58:56.065Z,12.18
2019-05-03T15:02:08.970Z,12.05
2019-05-03T15:05:14.927Z,11.72
2019-05-03T15:08:20.260Z,12.36
2019-05-03T15:11:26.633Z,12.51
2019-05-03T15:14:31.764Z,12.64
2019-05-03T15:17:36.956Z,12.45
2019-05-03T15:20:42.248Z,12.49
2019-05-03T15:23:47.470Z,12.50
2019-05-03T15:26:52.663Z,11.97
2019-05-03T15:29:57.840Z,12.26
2019-05-03T15:33:04.967Z,11.90
2019-05-03T15:36:09.950Z,11.59
2019-05-03T15:39:20.758Z,11.43
2019-05-03T15:42:27.748Z,11.11
2019-05-03T15:45:50.713Z,10.67
2019-05-03T15:48:58.380Z,10.86
2019-05-03T15:52:04.699Z,10.75
2019-05-03T15:55:09.984Z,10.59
2019-05-03T15:58:15.410Z,10.70
2019-05-03T16:01:35.381Z,10.50
2019-05-03T16:04:48.085Z,10.65
2019-05-03T16:07:55.165Z,10.45
2019-05-03T16:11:00.173Z,10.42
2019-05-03T16:14:06.548Z,10.20
2019-05-03T16:17:11.805Z,10.01
2019-05-03T16:20:17.250Z,9.97
2019-05-03T16:23:22.602Z,9.97
2019-05-03T16:26:32.339Z,9.94
2019-05-03T16:29:37.551Z,9.82
2019-05-03T16:32:44.323Z,9.66
2019-05-03T16:35:49.644Z,9.75
2019-05-03T16:38:56.234Z,9.60
2019-05-03T16:42:01.419Z,9.69
2019-05-03T16:45:07.573Z,9.76
2019-05-03T16:48:12.823Z,9.78
2019-05-03T16:51:18.070Z,9.77
2019-05-03T16:54:25.294Z,9.70
2019-05-03T16:57:30.169Z,9.63
2019-05-03T17:00:35.473Z,9.57
2019-05-03T17:03:45.814Z,9.40
2019-05-03T17:07:00.338Z,9.27
2019-05-03T17:10:15.358Z,9.30
2019-05-03T17:13:20.388Z,9.24
2019-05-03T17:16:25.642Z,9.23
2019-05-03T17:19:30.794Z,9.16
2019-05-03T17:22:36.164Z,9.15
2019-05-03T17:25:44.466Z,9.11
2019-05-03T17:28:50.863Z,9.10
2019-05-03T17:31:56.109Z,9.17
2019-05-03T17:35:01.243Z,9.17
2019-05-03T17:38:06.489Z,9.19
2019-05-03T17:41:30.599Z,9.24
2019-05-03T17:44:39.999Z,9.16
2019-05-03T17:47:45.470Z,9.21
2019-05-03T17:50:50.657Z,9.02
2019-05-03T17:54:05.129Z,9.00
2019-05-03T17:57:20.402Z,8.83
2019-05-03T18:00:50.793Z,8.82
2019-05-03T18:04:06.637Z,8.82
2019-05-03T18:07:24.624Z,8.71
2019-05-03T18:10:30.760Z,8.73
2019-05-03T18:13:35.955Z,8.52
2019-05-03T18:16:41.110Z,8.52
2019-05-03T18:19:47.897Z,8.47
2019-05-03T18:22:54.704Z,8.44
2019-05-03T18:26:00.020Z,8.41
2019-05-03T18:29:05.772Z,8.47
2019-05-03T18:32:14.396Z,8.31
2019-05-03T18:35:18.145Z,8.21
2019-05-03T18:38:25.512Z,8.13
2019-05-03T18:41:30.779Z,8.14
2019-05-03T18:44:44.918Z,8.08
2019-05-03T18:47:51.322Z,8.00
2019-05-03T18:50:57.523Z,7.90
2019-05-03T18:54:04.799Z,7.93
2019-05-03T18:57:09.584Z,7.98
2019-05-03T19:00:17.317Z,7.94
2019-05-03T19:03:22.602Z,7.96
2019-05-03T19:06:27.858Z,7.97
2019-05-03T19:09:44.350Z,8.02
2019-05-03T19:13:07.053Z,7.94
2019-05-03T19:16:29.443Z,7.92
2019-05-03T19:19:37.422Z,7.82
2019-05-03T19:22:42.693Z,7.77
2019-05-03T19:25:49.601Z,7.65
2019-05-03T19:28:56.348Z,7.67
2019-05-03T19:32:01.722Z,7.52
2019-05-03T19:35:09.348Z,7.49
2019-05-03T19:38:15.210Z,7.38
2019-05-03T19:41:20.462Z,7.45
2019-05-03T19:44:25.630Z,7.35
2019-05-03T19:47:30.943Z,7.30
2019-05-03T19:50:36.537Z,7.33
2019-05-03T19:53:48.632Z,7.27
2019-05-03T19:56:55.694Z,7.18
2019-05-03T20:00:00.691Z,7.29
2019-05-03T20:03:11.935Z,7.29
2019-05-03T20:06:36.052Z,7.19
2019-05-03T20:09:41.379Z,7.24
2019-05-03T20:12:46.624Z,7.26
2019-05-03T20:15:51.889Z,7.19
2019-05-03T20:18:57.053Z,7.23
2019-05-03T20:22:02.298Z,7.22
2019-05-03T20:25:08.072Z,7.27
2019-05-03T20:28:15.278Z,7.19
2019-05-03T20:31:20.123Z,7.18
2019-05-03T20:34:25.385Z,7.22
2019-05-03T20:37:30.650Z,7.20
2019-05-03T20:40:35.868Z,7.16
2019-05-03T20:44:00.011Z,7.24
2019-05-03T20:47:23.021Z,7.05
2019-05-03T20:50:28.324Z,7.02
2019-05-03T20:53:34.408Z,7.04
2019-05-03T20:56:40.944Z,6.94
2019-05-03T20:59:50.378Z,6.85
2019-05-03T21:02:54.793Z,6.80
2019-05-03T21:06:02.509Z,6.79
2019-05-03T21:09:08.453Z,6.72
2019-05-03T21:12:15.201Z,6.75
2019-05-03T21:15:35.919Z,6.70
2019-05-03T21:18:55.824Z,6.78
2019-05-03T21:22:14.371Z,6.72
2019-05-03T21:25:24.905Z,6.70
2019-05-03T21:28:30.505Z,6.65
2019-05-03T21:31:37.198Z,6.64
2019-05-03T21:34:42.841Z,6.63
2019-05-03T21:37:48.077Z,6.56
2019-05-03T21:40:54.677Z,6.65
2019-05-03T21:44:00.001Z,6.61
2019-05-03T21:47:15.308Z,6.53
2019-05-03T21:50:21.441Z,6.49
2019-05-03T21:53:26.574Z,6.51
2019-05-03T21:56:35.405Z,6.41
2019-05-03T21:59:38.629Z,6.39
2019-05-03T22:02:44.093Z,6.38
2019-05-03T22:05:54.930Z,6.33
2019-05-03T22:08:58.306Z,6.31
2019-05-03T22:12:05.099Z,6.20
2019-05-03T22:15:17.808Z,6.15
2019-05-03T22:18:24.976Z,6.20
2019-05-03T22:21:47.178Z,6.02
2019-05-03T22:24:55.495Z,6.09
2019-05-03T22:28:00.928Z,6.02
2019-05-03T22:31:06.858Z,6.08
2019-05-03T22:34:12.261Z,5.93
2019-05-03T22:37:17.495Z,5.94
2019-05-03T22:40:24.991Z,6.06
2019-05-03T22:43:29.954Z,6.02
2019-05-03T22:46:35.312Z,5.95
2019-05-03T22:49:40.551Z,5.53
2019-05-03T22:52:46.096Z,5.04
2019-05-03T22:55:51.321Z,4.59
2019-05-03T22:58:56.538Z,4.36
2019-05-03T23:02:02.716Z,4.27
2019-05-03T23:05:08.286Z,4.09
2019-05-03T23:08:14.856Z,4.08
2019-05-03T23:11:20.062Z,4.06
2019-05-03T23:14:25.717Z,3.93
2019-05-03T23:17:34.535Z,3.94
2019-05-03T23:20:46.346Z,4.00
2019-05-03T23:23:54.660Z,3.95
2019-05-03T23:26:59.407Z,3.88
2019-05-03T23:30:05.917Z,3.94
2019-05-03T23:33:11.053Z,4.00
2019-05-03T23:36:16.220Z,4.07
2019-05-03T23:39:21.366Z,4.05
2019-05-03T23:42:26.515Z,4.08
2019-05-03T23:45:34.765Z,4.12
2019-05-03T23:48:40.152Z,4.16
2019-05-03T23:51:54.960Z,4.03
2019-05-03T23:55:01.206Z,3.84
2019-05-03T23:58:06.431Z,3.88
